| time (UTC) | temp C | wind direction | speed KPH | gust KPH | rain 1hr cm | rain 24hr cm | rain mn cm | humidity % | barometer mb |
| 20260510203333 | 23 | 231 | 1.6 | 8.0 | 0.00 | 0.00 | 0.00 | 73 | 1017.2 |
| 20260510202745 | 23 | 237 | 0.0 | 0.0 | 0.00 | 0.00 | 0.00 | 69 | 1016.9 |
| 20260510202136 | 23 | 221 | 4.8 | 8.0 | 0.00 | 0.00 | 0.00 | 69 | 1017.2 |
| 20260510200912 | 23 | 237 | 0.0 | 3.2 | 0.00 | 0.00 | 0.00 | 71 | 1017.2 |
| 20260510200339 | 24 | 244 | 0.0 | 0.0 | 0.00 | 0.00 | 0.00 | 76 | 1017.2 |
| 20260510195720 | 24 | 257 | 6.4 | 8.0 | 0.00 | 0.00 | 0.00 | 66 | 1017.2 |
| 20260510195153 | 25 | 225 | 4.8 | 8.0 | 0.00 | 0.00 | 0.00 | 64 | 1017.2 |
| 20260510194535 | 25 | 200 | 1.6 | 8.0 | 0.00 | 0.00 | 0.00 | 59 | 1017.2 |
| 20260510193952 | 25 | 293 | 1.6 | 3.2 | 0.00 | 0.00 | 0.00 | 61 | 1017.2 |
| 20260510193321 | 25 | 243 | 6.4 | 8.0 | 0.00 | 0.00 | 0.00 | 64 | 1016.9 |
| 20260510192731 | 25 | 263 | 6.4 | 11.3 | 0.00 | 0.00 | 0.00 | 61 | 1017.2 |
| 20260510192132 | 25 | 262 | 6.4 | 8.0 | 0.00 | 0.00 | 0.00 | 59 | 1016.9 |
| 20260510191534 | 25 | 254 | 4.8 | 8.0 | 0.00 | 0.00 | 0.00 | 59 | 1017.2 |
| 20260510190926 | 25 | 244 | 1.6 | 3.2 | 0.00 | 0.00 | 0.00 | 63 | 1017.2 |
| 20260510190319 | 25 | 271 | 1.6 | 3.2 | 0.00 | 0.00 | 0.00 | 60 | 1017.2 |
| 20260510185121 | 25 | 207 | 0.0 | 3.2 | 0.00 | 0.00 | 0.00 | 56 | 1017.2 |
| 20260510184544 | 25 | 230 | 14.5 | 19.3 | 0.00 | 0.00 | 0.00 | 58 | 1016.9 |
| 20260510183943 | 25 | 249 | 0.0 | 0.0 | 0.00 | 0.00 | 0.00 | 56 | 1016.9 |
| 20260510183349 | 25 | 294 | 3.2 | 8.0 | 0.00 | 0.00 | 0.00 | 55 | 1017.2 |
| 20260510182738 | 25 | 261 | 6.4 | 11.3 | 0.00 | 0.00 | 0.00 | 57 | 1016.9 |
| 20260510182115 | 25 | 356 | 0.0 | 3.2 | 0.00 | 0.00 | 0.00 | 59 | 1016.9 |
| 20260510181544 | 25 | 231 | 9.7 | 11.3 | 0.00 | 0.00 | 0.00 | 56 | 1016.9 |
| 20260510180934 | 25 | 331 | 0.0 | 3.2 | 0.00 | 0.00 | 0.00 | 58 | 1016.5 |
| 20260510180317 | 25 | 290 | 6.4 | 8.0 | 0.00 | 0.00 | 0.00 | 53 | 1016.9 |
| 20260510175741 | 25 | 202 | 0.0 | 3.2 | 0.00 | 0.00 | 0.00 | 59 | 1016.9 |
| 20260510175152 | 24 | 235 | 0.0 | 0.0 | 0.00 | 0.00 | 0.00 | 58 | 1016.9 |
| 20260510173950 | 24 | 226 | 0.0 | 3.2 | 0.00 | 0.00 | 0.00 | 57 | 1016.9 |
| 20260510173326 | 24 | 294 | 1.6 | 3.2 | 0.00 | 0.00 | 0.00 | 57 | 1017.2 |
| 20260510172724 | 24 | 271 | 0.0 | 0.0 | 0.00 | 0.00 | 0.00 | 59 | 1017.2 |
| 20260510172111 | 24 | 30 | 6.4 | 11.3 | 0.00 | 0.00 | 0.00 | 60 | 1016.9 |
| 20260510170336 | 25 | 230 | 0.0 | 0.0 | 0.00 | 0.00 | 0.00 | 58 | 1017.2 |
| 20260510165751 | 25 | 333 | 6.4 | 11.3 | 0.00 | 0.00 | 0.00 | 55 | 1016.9 |
| 20260510164545 | 25 | 56 | 9.7 | 16.1 | 0.00 | 0.00 | 0.00 | 53 | 1016.9 |
| 20260510163944 | 25 | 266 | 0.0 | 0.0 | 0.00 | 0.00 | 0.00 | 52 | 1016.9 |
| 20260510162725 | 25 | 317 | 3.2 | 8.0 | 0.00 | 0.00 | 0.00 | 55 | 1017.2 |
| 20260510161529 | 25 | 41 | 1.6 | 3.2 | 0.00 | 0.00 | 0.00 | 53 | 1016.9 |
| 20260510160950 | 24 | 254 | 0.0 | 3.2 | 0.00 | 0.00 | 0.00 | 57 | 1016.9 |
| 20260510155736 | 24 | 5 | 1.6 | 3.2 | 0.00 | 0.00 | 0.00 | 60 | 1017.2 |
| 20260510155150 | 24 | 253 | 0.0 | 0.0 | 0.00 | 0.00 | 0.00 | 58 | 1017.2 |
| 20260510154523 | 23 | 245 | 0.0 | 0.0 | 0.00 | 0.00 | 0.00 | 61 | 1017.2 |
| 20260510153949 | 23 | 210 | 1.6 | 3.2 | 0.00 | 0.00 | 0.00 | 57 | 1017.2 |
| 20260510153322 | 23 | 5 | 4.8 | 8.0 | 0.00 | 0.00 | 0.00 | 56 | 1016.9 |
| 20260510152734 | 23 | 198 | 0.0 | 0.0 | 0.00 | 0.00 | 0.00 | 58 | 1017.2 |
| 20260510152149 | 23 | 353 | 3.2 | 8.0 | 0.00 | 0.00 | 0.00 | 61 | 1016.9 |
| 20260510151535 | 23 | 22 | 17.7 | 24.1 | 0.00 | 0.00 | 0.00 | 60 | 1017.2 |
| 20260510150914 | 23 | 235 | 9.7 | 16.1 | 0.00 | 0.00 | 0.00 | 63 | 1017.2 |
| 20260510150339 | 23 | 218 | 3.2 | 8.0 | 0.00 | 0.00 | 0.00 | 59 | 1017.2 |
| 20260510145717 | 22 | 251 | 0.0 | 0.0 | 0.00 | 0.00 | 0.00 | 62 | 1017.2 |
| 20260510145138 | 22 | 267 | 3.2 | 8.0 | 0.00 | 0.00 | 0.00 | 59 | 1017.2 |
| 20260510144510 | 22 | 333 | 0.0 | 0.0 | 0.00 | 0.00 | 0.00 | 61 | 1017.2 |
| 20260510143926 | 22 | 58 | 8.0 | 11.3 | 0.00 | 0.00 | 0.00 | 61 | 1017.2 |
| 20260510143335 | 21 | 221 | 0.0 | 0.0 | 0.00 | 0.00 | 0.00 | 65 | 1017.6 |
| 20260510142713 | 21 | 170 | 3.2 | 8.0 | 0.00 | 0.00 | 0.00 | 65 | 1017.6 |
| 20260510142128 | 21 | 76 | 0.0 | 0.0 | 0.00 | 0.00 | 0.00 | 67 | 1017.2 |
| 20260510140929 | 21 | 298 | 0.0 | 0.0 | 0.00 | 0.00 | 0.00 | 68 | 1017.6 |
| 20260510135715 | 21 | 257 | 0.0 | 0.0 | 0.00 | 0.00 | 0.00 | 62 | 1017.6 |
| 20260510135116 | 21 | 80 | 1.6 | 8.0 | 0.00 | 0.00 | 0.00 | 65 | 1017.6 |
| 20260510134511 | 20 | 144 | 0.0 | 3.2 | 0.00 | 0.00 | 0.00 | 64 | 1017.2 |
| 20260510133348 | 20 | 36 | 4.8 | 8.0 | 0.00 | 0.00 | 0.00 | 67 | 1017.2 |
| 20260510132749 | 20 | 73 | 0.0 | 0.0 | 0.00 | 0.00 | 0.00 | 68 | 1017.2 |
| 20260510131517 | 20 | 125 | 1.6 | 3.2 | 0.00 | 0.00 | 0.00 | 69 | 1017.2 |
| 20260510130920 | 20 | 50 | 1.6 | 3.2 | 0.00 | 0.00 | 0.00 | 69 | 1017.2 |
| 20260510130331 | 20 | 42 | 1.6 | 3.2 | 0.00 | 0.00 | 0.00 | 70 | 1017.2 |
| 20260510125751 | 19 | 356 | 1.6 | 8.0 | 0.00 | 0.00 | 0.00 | 67 | 1017.2 |
| 20260510125144 | 18 | 182 | 0.0 | 0.0 | 0.00 | 0.00 | 0.00 | 67 | 1017.2 |
| 20260510123308 | 16 | 11 | 0.0 | 3.2 | 0.00 | 0.00 | 0.00 | 72 | 1017.2 |
| 20260510122730 | 15 | 51 | 9.7 | 16.1 | 0.00 | 0.00 | 0.00 | 77 | 1016.9 |
| 20260510122134 | 13 | 65 | 0.0 | 0.0 | 0.00 | 0.00 | 0.00 | 82 | 1016.9 |
| 20260510121511 | 13 | 232 | 0.0 | 0.0 | 0.00 | 0.00 | 0.00 | 84 | 1017.2 |
| 20260510120949 | 12 | 88 | 3.2 | 3.2 | 0.00 | 0.00 | 0.00 | 91 | 1017.2 |
| 20260510115743 | 11 | 92 | 4.8 | 8.0 | 0.00 | 0.00 | 0.00 | 98 | 1016.5 |
| 20260510114518 | 11 | 225 | 0.0 | 0.0 | 0.00 | 0.00 | 0.00 | 98 | 1016.9 |
| 20260510113914 | 11 | 211 | 0.0 | 0.0 | 0.00 | 0.00 | 0.00 | 98 | 1016.9 |
| 20260510112710 | 10 | 191 | 0.0 | 0.0 | 0.00 | 0.00 | 0.00 | 98 | 1016.5 |
| 20260510112131 | 10 | 242 | 0.0 | 0.0 | 0.00 | 0.00 | 0.00 | 98 | 1016.5 |
| 20260510111532 | 10 | 169 | 0.0 | 0.0 | 0.00 | 0.00 | 0.00 | 98 | 1016.2 |
| 20260510110933 | 10 | 228 | 0.0 | 0.0 | 0.00 | 0.00 | 0.00 | 98 | 1016.2 |
| 20260510110312 | 10 | 225 | 0.0 | 0.0 | 0.00 | 0.00 | 0.00 | 98 | 1016.2 |
| 20260510105747 | 10 | 192 | 0.0 | 0.0 | 0.00 | 0.00 | 0.00 | 98 | 1016.2 |
| 20260510105143 | 10 | 208 | 0.0 | 0.0 | 0.00 | 0.00 | 0.00 | 98 | 1015.9 |
| 20260510103935 | 10 | 229 | 0.0 | 0.0 | 0.00 | 0.00 | 0.00 | 98 | 1015.9 |
| 20260510103324 | 10 | 167 | 0.0 | 0.0 | 0.00 | 0.00 | 0.00 | 98 | 1015.9 |
| 20260510102717 | 10 | 181 | 0.0 | 0.0 | 0.00 | 0.00 | 0.00 | 98 | 1015.9 |
| 20260510102142 | 10 | 242 | 0.0 | 0.0 | 0.00 | 0.00 | 0.00 | 98 | 1015.5 |
| 20260510101511 | 10 | 272 | 0.0 | 0.0 | 0.00 | 0.00 | 0.00 | 98 | 1015.5 |
| 20260510100351 | 10 | 223 | 0.0 | 0.0 | 0.00 | 0.00 | 0.00 | 98 | 1015.5 |
| 20260510095710 | 10 | 98 | 0.0 | 0.0 | 0.00 | 0.00 | 0.00 | 98 | 1015.5 |
| 20260510095139 | 10 | 196 | 0.0 | 0.0 | 0.00 | 0.00 | 0.00 | 98 | 1015.2 |
| 20260510094539 | 10 | 208 | 0.0 | 0.0 | 0.00 | 0.00 | 0.00 | 98 | 1015.2 |
| 20260510093908 | 10 | 217 | 0.0 | 3.2 | 0.00 | 0.00 | 0.00 | 98 | 1015.2 |
| 20260510093327 | 10 | 150 | 0.0 | 0.0 | 0.00 | 0.00 | 0.00 | 98 | 1015.5 |
| 20260510092725 | 10 | 216 | 0.0 | 0.0 | 0.00 | 0.00 | 0.00 | 98 | 1015.2 |
| 20260510092129 | 10 | 197 | 0.0 | 0.0 | 0.00 | 0.00 | 0.00 | 98 | 1015.2 |
| 20260510091537 | 10 | 234 | 0.0 | 0.0 | 0.00 | 0.00 | 0.00 | 98 | 1015.2 |
| 20260510090909 | 10 | 188 | 0.0 | 0.0 | 0.00 | 0.00 | 0.00 | 98 | 1014.9 |
| 20260510090341 | 10 | 135 | 0.0 | 0.0 | 0.00 | 0.00 | 0.00 | 98 | 1015.2 |
| 20260510085716 | 10 | 171 | 0.0 | 0.0 | 0.00 | 0.00 | 0.00 | 98 | 1014.9 |
| 20260510083948 | 10 | 206 | 0.0 | 0.0 | 0.00 | 0.00 | 0.00 | 98 | 1014.9 |
| 20260510083352 | 10 | 212 | 0.0 | 0.0 | 0.00 | 0.00 | 0.00 | 98 | 1014.5 |
| 20260510082744 | 10 | 123 | 0.0 | 0.0 | 0.00 | 0.00 | 0.00 | 98 | 1014.5 |
| 20260510082119 | 10 | 216 | 0.0 | 3.2 | 0.00 | 0.00 | 0.00 | 98 | 1014.5 |
| 20260510081549 | 10 | 194 | 0.0 | 0.0 | 0.00 | 0.00 | 0.00 | 98 | 1014.5 |
| 20260510080918 | 10 | 173 | 1.6 | 3.2 | 0.00 | 0.00 | 0.00 | 98 | 1014.5 |
| 20260510080327 | 10 | 158 | 0.0 | 3.2 | 0.00 | 0.00 | 0.00 | 98 | 1014.5 |
| 20260510075750 | 10 | 217 | 0.0 | 3.2 | 0.00 | 0.00 | 0.00 | 98 | 1014.5 |
| 20260510074542 | 10 | 218 | 0.0 | 0.0 | 0.00 | 0.00 | 0.00 | 98 | 1014.2 |
| 20260510073942 | 10 | 176 | 0.0 | 0.0 | 0.00 | 0.00 | 0.00 | 98 | 1014.5 |
| 20260510073347 | 10 | 222 | 0.0 | 0.0 | 0.00 | 0.00 | 0.00 | 98 | 1014.5 |
| 20260510072734 | 10 | 224 | 0.0 | 0.0 | 0.00 | 0.00 | 0.00 | 98 | 1014.5 |
| 20260510072126 | 10 | 170 | 0.0 | 0.0 | 0.00 | 0.00 | 0.00 | 98 | 1014.5 |
| 20260510071546 | 10 | 167 | 0.0 | 0.0 | 0.00 | 0.00 | 0.00 | 98 | 1014.5 |
| 20260510070925 | 10 | 170 | 0.0 | 0.0 | 0.00 | 0.00 | 0.00 | 98 | 1014.2 |
| 20260510070312 | 10 | 227 | 0.0 | 0.0 | 0.00 | 0.00 | 0.00 | 98 | 1014.5 |
| 20260510065734 | 10 | 178 | 0.0 | 0.0 | 0.00 | 0.00 | 0.00 | 98 | 1014.2 |
| 20260510065141 | 10 | 219 | 0.0 | 0.0 | 0.00 | 0.00 | 0.00 | 98 | 1014.5 |
| 20260510063923 | 10 | 184 | 0.0 | 0.0 | 0.00 | 0.00 | 0.00 | 98 | 1014.5 |
| 20260510063330 | 11 | 162 | 0.0 | 0.0 | 0.00 | 0.00 | 0.00 | 98 | 1014.5 |
| 20260510062709 | 11 | 207 | 0.0 | 0.0 | 0.00 | 0.00 | 0.00 | 98 | 1014.5 |
| 20260510062146 | 11 | 223 | 0.0 | 0.0 | 0.00 | 0.00 | 0.00 | 98 | 1014.2 |
| 20260510061534 | 11 | 151 | 0.0 | 0.0 | 0.00 | 0.00 | 0.00 | 98 | 1014.5 |
| 20260510060949 | 11 | 131 | 0.0 | 0.0 | 0.00 | 0.00 | 0.00 | 98 | 1014.5 |
| 20260510060341 | 11 | 203 | 0.0 | 0.0 | 0.00 | 0.00 | 0.00 | 98 | 1014.5 |
| 20260510055725 | 11 | 213 | 1.6 | 3.2 | 0.00 | 0.00 | 0.00 | 98 | 1014.5 |
| 20260510055118 | 11 | 182 | 0.0 | 0.0 | 0.00 | 0.00 | 0.00 | 98 | 1014.5 |
| 20260510054538 | 11 | 172 | 0.0 | 0.0 | 0.00 | 0.00 | 0.00 | 98 | 1014.5 |
| 20260510053314 | 11 | 204 | 0.0 | 0.0 | 0.00 | 0.00 | 0.00 | 98 | 1014.5 |
| 20260510052149 | 11 | 205 | 0.0 | 0.0 | 0.00 | 0.00 | 0.00 | 98 | 1014.5 |
| 20260510051548 | 11 | 224 | 0.0 | 0.0 | 0.00 | 0.00 | 0.00 | 98 | 1014.5 |
| 20260510050912 | 11 | 106 | 0.0 | 0.0 | 0.00 | 0.00 | 0.00 | 98 | 1014.5 |
| 20260510050332 | 11 | 193 | 0.0 | 0.0 | 0.00 | 0.00 | 0.00 | 98 | 1014.9 |
| 20260510045721 | 11 | 192 | 0.0 | 0.0 | 0.00 | 0.00 | 0.00 | 98 | 1014.9 |
| 20260510045110 | 11 | 98 | 0.0 | 0.0 | 0.00 | 0.00 | 0.00 | 98 | 1014.9 |
| 20260510043931 | 11 | 178 | 0.0 | 0.0 | 0.00 | 0.00 | 0.00 | 98 | 1015.2 |
| 20260510043338 | 11 | 197 | 0.0 | 0.0 | 0.00 | 0.00 | 0.00 | 98 | 1014.9 |
| 20260510042711 | 11 | 230 | 0.0 | 0.0 | 0.00 | 0.00 | 0.00 | 97 | 1014.9 |
| 20260510042145 | 11 | 200 | 0.0 | 0.0 | 0.00 | 0.00 | 0.00 | 97 | 1014.9 |
| 20260510041533 | 11 | 148 | 0.0 | 0.0 | 0.00 | 0.00 | 0.00 | 97 | 1014.9 |
| 20260510040924 | 11 | 204 | 0.0 | 0.0 | 0.00 | 0.00 | 0.00 | 97 | 1014.9 |
| 20260510040343 | 11 | 160 | 0.0 | 0.0 | 0.00 | 0.00 | 0.00 | 97 | 1014.9 |
| 20260510035747 | 11 | 219 | 0.0 | 0.0 | 0.00 | 0.00 | 0.00 | 97 | 1014.9 |
| 20260510035123 | 11 | 162 | 0.0 | 0.0 | 0.00 | 0.00 | 0.00 | 97 | 1014.9 |
| 20260510034541 | 11 | 175 | 0.0 | 0.0 | 0.00 | 0.00 | 0.00 | 97 | 1014.9 |
| 20260510033910 | 11 | 200 | 0.0 | 0.0 | 0.00 | 0.00 | 0.00 | 97 | 1015.2 |
| 20260510033316 | 11 | 174 | 0.0 | 0.0 | 0.00 | 0.00 | 0.00 | 97 | 1014.5 |
| 20260510032752 | 11 | 203 | 0.0 | 0.0 | 0.00 | 0.00 | 0.00 | 97 | 1014.9 |
| 20260510032147 | 11 | 113 | 0.0 | 0.0 | 0.00 | 0.00 | 0.00 | 97 | 1014.5 |
| 20260510031524 | 11 | 224 | 0.0 | 0.0 | 0.00 | 0.00 | 0.00 | 97 | 1014.5 |
| 20260510030919 | 11 | 139 | 0.0 | 0.0 | 0.00 | 0.00 | 0.00 | 97 | 1014.9 |
| 20260510030328 | 11 | 227 | 0.0 | 0.0 | 0.00 | 0.00 | 0.00 | 96 | 1014.5 |
| 20260510025732 | 11 | 215 | 0.0 | 0.0 | 0.00 | 0.00 | 0.00 | 96 | 1014.9 |
| 20260510025123 | 12 | 223 | 0.0 | 0.0 | 0.00 | 0.00 | 0.00 | 96 | 1014.5 |
| 20260510023940 | 12 | 181 | 0.0 | 0.0 | 0.00 | 0.00 | 0.00 | 96 | 1014.5 |
| 20260510022739 | 12 | 217 | 0.0 | 0.0 | 0.00 | 0.00 | 0.00 | 96 | 1014.2 |
| 20260510021510 | 12 | 227 | 0.0 | 0.0 | 0.00 | 0.00 | 0.00 | 96 | 1013.8 |
| 20260510020952 | 12 | 222 | 0.0 | 0.0 | 0.00 | 0.00 | 0.00 | 96 | 1013.8 |
| 20260510015740 | 12 | 210 | 0.0 | 0.0 | 0.00 | 0.00 | 0.00 | 95 | 1013.5 |
| 20260510015143 | 12 | 214 | 0.0 | 0.0 | 0.00 | 0.00 | 0.00 | 95 | 1013.5 |
| 20260510014511 | 13 | 218 | 0.0 | 0.0 | 0.00 | 0.00 | 0.00 | 95 | 1013.5 |
| 20260510013946 | 13 | 144 | 0.0 | 0.0 | 0.00 | 0.00 | 0.00 | 95 | 1013.5 |
| 20260510012725 | 13 | 185 | 0.0 | 0.0 | 0.00 | 0.00 | 0.00 | 95 | 1013.5 |
| 20260510012131 | 13 | 205 | 0.0 | 0.0 | 0.00 | 0.00 | 0.00 | 95 | 1013.5 |
| 20260510011556 | 13 | 119 | 0.0 | 0.0 | 0.00 | 0.00 | 0.00 | 95 | 1013.5 |
| 20260510010951 | 13 | 183 | 0.0 | 0.0 | 0.00 | 0.00 | 0.00 | 95 | 1013.2 |
| 20260510010348 | 14 | 209 | 0.0 | 0.0 | 0.00 | 0.00 | 0.00 | 94 | 1013.2 |
| 20260510005143 | 15 | 168 | 0.0 | 0.0 | 0.00 | 0.00 | 0.00 | 94 | 1013.5 |
| 20260510004550 | 15 | 165 | 0.0 | 0.0 | 0.00 | 0.00 | 0.00 | 94 | 1012.8 |
| 20260510003307 | 15 | 229 | 0.0 | 0.0 | 0.00 | 0.00 | 0.00 | 92 | 1012.8 |
| 20260510002716 | 16 | 221 | 0.0 | 0.0 | 0.00 | 0.00 | 0.00 | 92 | 1012.8 |
| 20260510001511 | 16 | 218 | 0.0 | 0.0 | 0.00 | 0.00 | 0.00 | 90 | 1012.5 |
| 20260510000943 | 17 | 242 | 0.0 | 0.0 | 0.00 | 0.00 | 0.00 | 88 | 1012.5 |
| 20260510000349 | 17 | 225 | 0.0 | 0.0 | 0.00 | 0.00 | 0.00 | 87 | 1012.5 |
| 20260509235710 | 18 | 264 | 0.0 | 0.0 | 0.00 | 0.00 | 0.00 | 85 | 1012.5 |
| 20260509235126 | 19 | 223 | 0.0 | 0.0 | 0.00 | 0.00 | 0.00 | 83 | 1012.1 |
| 20260509234543 | 20 | 242 | 0.0 | 3.2 | 0.00 | 0.00 | 0.00 | 81 | 1012.5 |
| 20260509233949 | 21 | 247 | 0.0 | 0.0 | 0.00 | 0.00 | 0.00 | 78 | 1012.5 |
| 20260509233339 | 21 | 242 | 0.0 | 0.0 | 0.00 | 0.00 | 0.00 | 72 | 1012.5 |
| 20260509232130 | 22 | 255 | 0.0 | 0.0 | 0.00 | 0.00 | 0.00 | 72 | 1012.5 |
| 20260509231509 | 22 | 264 | 1.6 | 3.2 | 0.00 | 0.00 | 0.00 | 65 | 1012.5 |
| 20260509230951 | 22 | 239 | 0.0 | 0.0 | 0.00 | 0.00 | 0.00 | 68 | 1012.1 |
| 20260509230332 | 22 | 259 | 0.0 | 0.0 | 0.00 | 0.00 | 0.00 | 64 | 1012.5 |
| 20260509225146 | 22 | 115 | 0.0 | 0.0 | 0.00 | 0.00 | 0.00 | 60 | 1012.5 |
| 20260509224535 | 22 | 264 | 3.2 | 8.0 | 0.00 | 0.00 | 0.00 | 64 | 1012.1 |
| 20260509223928 | 22 | 210 | 0.0 | 0.0 | 0.00 | 0.00 | 0.00 | 61 | 1012.5 |
| 20260509223343 | 22 | 177 | 0.0 | 3.2 | 0.00 | 0.00 | 0.00 | 63 | 1012.5 |
| 20260509222130 | 21 | 251 | 0.0 | 0.0 | 0.00 | 0.00 | 0.00 | 59 | 1012.1 |
| 20260509220918 | 21 | 325 | 3.2 | 8.0 | 0.00 | 0.00 | 0.00 | 64 | 1012.1 |
| 20260509220325 | 21 | 87 | 0.0 | 3.2 | 0.00 | 0.00 | 0.00 | 64 | 1012.5 |
| 20260509215723 | 21 | 68 | 0.0 | 3.2 | 0.00 | 0.00 | 0.00 | 62 | 1012.5 |
| 20260509215134 | 21 | 34 | 0.0 | 3.2 | 0.00 | 0.00 | 0.00 | 63 | 1012.5 |
| 20260509214520 | 21 | 146 | 6.4 | 11.3 | 0.00 | 0.00 | 0.00 | 64 | 1012.5 |
| 20260509213335 | 21 | 266 | 1.6 | 8.0 | 0.00 | 0.00 | 0.00 | 64 | 1012.5 |
| 20260509212739 | 21 | 25 | 4.8 | 11.3 | 0.00 | 0.00 | 0.00 | 62 | 1012.5 |
| 20260509212145 | 21 | 296 | 4.8 | 8.0 | 0.00 | 0.00 | 0.00 | 62 | 1012.1 |
| 20260509211542 | 21 | 290 | 3.2 | 8.0 | 0.00 | 0.00 | 0.00 | 65 | 1012.8 |
| 20260509210931 | 21 | 94 | 0.0 | 3.2 | 0.00 | 0.00 | 0.00 | 64 | 1012.5 |
| 20260509210318 | 21 | 113 | 0.0 | 0.0 | 0.00 | 0.00 | 0.00 | 62 | 1012.8 |
| 20260509205747 | 22 | 41 | 1.6 | 3.2 | 0.00 | 0.00 | 0.00 | 64 | 1012.5 |
| 20260509205134 | 22 | 30 | 6.4 | 11.3 | 0.00 | 0.00 | 0.00 | 63 | 1012.5 |
| 20260509204537 | 22 | 12 | 0.0 | 0.0 | 0.00 | 0.00 | 0.00 | 63 | 1012.5 |
| 20260509203950 | 22 | 223 | 0.0 | 0.0 | 0.00 | 0.00 | 0.00 | 60 | 1012.8 |